Time;durP1;ratioP1;P1;durP2;ratioP2;P2;SDS_P1;SDS_P2;PMS_P1;PMS_P2;Temp;Humidity;BMP_temperature;BMP_pressure;BME280_temperature;BME280_humidity;BME280_pressure;Samples;Min_cycle;Max_cycle;Signal;HPM_P1;HPM_P2
2024/03/01 00:00:03;;;;;;;0.00;0.00;;;24.20;50.70;;;;;;5011548;28;20685;-45
2024/03/01 00:02:33;;;;;;;0.00;0.00;;;24.30;50.70;;;;;;5010924;28;20205;-45
2024/03/01 00:05:06;;;;;;;0.00;0.00;;;24.30;50.70;;;;;;5010992;28;20197;-48
2024/03/01 00:07:37;;;;;;;0.05;0.05;;;24.30;50.70;;;;;;5008532;28;20208;-44
2024/03/01 00:10:09;;;;;;;0.10;0.10;;;24.40;50.70;;;;;;5010398;28;20220;-46
2024/03/01 00:12:40;;;;;;;0.00;0.00;;;24.40;50.70;;;;;;5014277;28;20204;-45
2024/03/01 00:15:11;;;;;;;0.10;0.10;;;24.40;50.70;;;;;;5014959;28;20208;-46
2024/03/01 00:17:42;;;;;;;0.00;0.00;;;24.50;50.90;;;;;;5015066;28;20229;-45
2024/03/01 00:20:15;;;;;;;0.00;0.00;;;24.50;50.80;;;;;;5015507;28;20247;-47
2024/03/01 00:22:47;;;;;;;0.00;0.00;;;24.50;50.80;;;;;;5014836;28;20205;-45
2024/03/01 00:25:18;;;;;;;0.00;0.00;;;24.60;50.80;;;;;;5015350;28;20193;-49
2024/03/01 00:27:49;;;;;;;0.00;0.00;;;24.60;50.80;;;;;;5014925;28;20192;-48
2024/03/01 00:30:20;;;;;;;0.00;0.00;;;24.60;50.80;;;;;;5015151;28;20220;-45
2024/03/01 00:32:51;;;;;;;0.00;0.00;;;24.60;50.70;;;;;;5014910;28;20252;-48
2024/03/01 00:35:23;;;;;;;0.00;0.00;;;24.70;50.60;;;;;;5014871;28;20192;-45
2024/03/01 00:37:54;;;;;;;0.00;0.00;;;24.70;50.50;;;;;;5015146;28;20201;-49
2024/03/01 00:40:24;;;;;;;0.00;0.00;;;24.70;50.50;;;;;;5014867;28;20558;-44
2024/03/01 00:42:55;;;;;;;0.00;0.00;;;24.80;50.50;;;;;;5014016;28;20204;-48
2024/03/01 00:45:26;;;;;;;0.00;0.00;;;24.80;50.40;;;;;;5013846;28;20231;-47
2024/03/01 00:47:56;;;;;;;0.00;0.00;;;24.80;50.30;;;;;;5014335;28;20204;-48
2024/03/01 00:50:29;;;;;;;0.00;0.00;;;24.90;50.40;;;;;;5014356;28;20217;-44
2024/03/01 00:53:00;;;;;;;0.03;0.03;;;24.90;50.40;;;;;;5014354;28;20217;-45
2024/03/01 00:55:30;;;;;;;0.00;0.00;;;24.90;50.30;;;;;;5014704;28;20204;-47
2024/03/01 00:58:01;;;;;;;0.00;0.00;;;24.90;50.20;;;;;;5014495;28;20596;-47
2024/03/01 01:00:32;;;;;;;0.08;0.08;;;24.90;50.10;;;;;;5014343;28;20213;-45
2024/03/01 01:03:03;;;;;;;0.00;0.00;;;25.00;50.00;;;;;;5014537;28;20208;-48
2024/03/01 01:05:36;;;;;;;0.00;0.00;;;25.00;50.10;;;;;;5015039;28;20641;-45
2024/03/01 01:08:07;;;;;;;0.00;0.00;;;25.00;50.00;;;;;;5014230;28;20211;-45
2024/03/01 01:10:37;;;;;;;0.00;0.00;;;25.10;50.00;;;;;;5014418;28;20216;-43
2024/03/01 01:13:08;;;;;;;0.00;0.00;;;25.10;49.90;;;;;;5014569;28;20573;-47
2024/03/01 01:15:37;;;;;;;0.00;0.00;;;25.10;50.00;;;;;;5014441;28;20196;-46
2024/03/01 01:18:09;;;;;;;0.00;0.00;;;25.10;50.00;;;;;;5014282;28;20579;-46
2024/03/01 01:20:41;;;;;;;0.00;0.00;;;25.10;50.00;;;;;;5012507;28;20251;-45
2024/03/01 01:23:12;;;;;;;0.00;0.00;;;25.20;50.00;;;;;;5013390;28;20196;-45
2024/03/01 01:25:43;;;;;;;0.00;0.00;;;25.20;50.00;;;;;;5013864;28;20270;-44
2024/03/01 01:28:14;;;;;;;0.00;0.00;;;25.20;49.90;;;;;;5010918;28;20201;-48
2024/03/01 01:30:45;;;;;;;0.00;0.00;;;25.30;49.90;;;;;;5014030;28;20216;-47
2024/03/01 01:33:16;;;;;;;0.00;0.00;;;25.30;49.90;;;;;;5013837;28;20221;-45
2024/03/01 01:35:49;;;;;;;0.00;0.00;;;25.30;49.70;;;;;;5013777;28;20555;-45
2024/03/01 01:38:19;;;;;;;0.00;0.00;;;25.30;49.80;;;;;;5013687;28;20197;-47
2024/03/01 01:40:51;;;;;;;0.00;0.00;;;25.40;49.80;;;;;;5013605;28;20213;-49
2024/03/01 01:43:21;;;;;;;0.00;0.00;;;25.40;49.80;;;;;;5013749;28;20676;-42
2024/03/01 01:45:52;;;;;;;0.00;0.00;;;25.40;49.70;;;;;;5013688;28;20230;-47
2024/03/01 01:48:23;;;;;;;0.00;0.00;;;25.40;49.70;;;;;;5013685;28;20197;-47
2024/03/01 01:50:56;;;;;;;0.00;0.00;;;25.50;49.70;;;;;;5013905;28;20219;-47
2024/03/01 01:53:27;;;;;;;0.00;0.00;;;25.50;49.70;;;;;;5013748;28;20238;-48
2024/03/01 01:55:58;;;;;;;0.00;0.00;;;25.50;49.70;;;;;;5013732;28;20207;-47
2024/03/01 01:58:29;;;;;;;0.00;0.00;;;25.50;49.70;;;;;;5013643;28;20201;-47
2024/03/01 02:01:00;;;;;;;0.00;0.00;;;25.60;49.80;;;;;;5011962;28;20228;-46
2024/03/01 02:03:31;;;;;;;0.08;0.08;;;25.60;49.70;;;;;;5012127;28;20574;-48
2024/03/01 02:06:05;;;;;;;0.00;0.00;;;25.60;49.70;;;;;;5013324;28;20545;-46
2024/03/01 02:08:38;;;;;;;0.00;0.00;;;25.60;49.70;;;;;;5013227;28;20254;-45
2024/03/01 02:11:09;;;;;;;0.00;0.00;;;25.60;49.70;;;;;;5012570;28;20219;-46
2024/03/01 02:13:39;;;;;;;0.00;0.00;;;25.70;49.80;;;;;;5012827;28;20236;-48
2024/03/01 02:16:10;;;;;;;0.00;0.00;;;25.70;49.70;;;;;;5012617;28;20204;-45
2024/03/01 02:18:41;;;;;;;0.00;0.00;;;25.70;49.70;;;;;;5012984;28;20196;-49
2024/03/01 02:21:14;;;;;;;0.00;0.00;;;25.70;49.70;;;;;;5012595;28;20220;-48
2024/03/01 02:23:46;;;;;;;0.00;0.00;;;25.80;49.80;;;;;;5013645;28;20646;-44
2024/03/01 02:26:17;;;;;;;0.03;0.03;;;25.80;49.80;;;;;;5013048;28;20201;-48
2024/03/01 02:28:51;;;;;;;0.00;0.00;;;25.80;49.80;;;;;;5012644;28;20193;-47
2024/03/01 02:31:22;;;;;;;0.00;0.00;;;25.80;49.80;;;;;;5013125;28;20220;-47
2024/03/01 02:33:53;;;;;;;0.00;0.00;;;25.90;49.90;;;;;;5012379;28;20225;-47
2024/03/01 02:36:24;;;;;;;0.00;0.00;;;25.90;49.90;;;;;;5011916;28;20204;-47
2024/03/01 02:38:56;;;;;;;0.00;0.00;;;25.90;49.90;;;;;;5012943;28;20208;-48
2024/03/01 02:41:27;;;;;;;0.00;0.00;;;25.90;49.90;;;;;;5013307;28;20252;-44
2024/03/01 02:43:57;;;;;;;0.00;0.00;;;26.00;50.00;;;;;;5012782;28;20204;-46
2024/03/01 02:46:28;;;;;;;0.00;0.00;;;25.90;49.90;;;;;;5011905;28;20658;-45
2024/03/01 02:48:59;;;;;;;0.00;0.00;;;26.00;50.00;;;;;;5011933;28;20251;-48
2024/03/01 02:51:29;;;;;;;0.00;0.00;;;26.00;49.90;;;;;;5012028;28;20220;-43
2024/03/01 02:54:02;;;;;;;0.00;0.00;;;26.00;49.80;;;;;;5012367;28;20572;-44
2024/03/01 02:56:33;;;;;;;0.00;0.00;;;26.00;49.70;;;;;;5012573;28;20197;-46
2024/03/01 02:59:03;;;;;;;0.00;0.00;;;26.10;49.70;;;;;;5012535;28;20205;-47
2024/03/01 03:01:34;;;;;;;0.00;0.00;;;26.10;49.70;;;;;;5012138;28;20224;-48
2024/03/01 03:04:05;;;;;;;0.00;0.00;;;26.10;49.70;;;;;;5011865;28;20204;-44
2024/03/01 03:06:35;;;;;;;0.00;0.00;;;26.10;49.60;;;;;;5010924;28;20381;-47
2024/03/01 03:09:09;;;;;;;0.00;0.00;;;26.20;49.60;;;;;;5011941;28;20208;-46
2024/03/01 03:11:40;;;;;;;0.00;0.00;;;26.20;49.60;;;;;;5005108;28;20240;-47
2024/03/01 03:14:10;;;;;;;0.00;0.00;;;26.20;49.60;;;;;;4992099;28;20221;-47
2024/03/01 03:16:41;;;;;;;0.00;0.00;;;26.20;49.60;;;;;;5001775;28;20365;-45
2024/03/01 03:19:12;;;;;;;0.00;0.00;;;26.20;49.60;;;;;;5011462;28;20219;-46
2024/03/01 03:21:42;;;;;;;0.00;0.00;;;26.30;49.70;;;;;;5008268;28;20200;-46
2024/03/01 03:24:15;;;;;;;0.00;0.00;;;26.20;49.70;;;;;;5011751;28;20201;-49
2024/03/01 03:26:46;;;;;;;0.00;0.00;;;26.30;49.60;;;;;;5011857;28;20212;-44
2024/03/01 03:29:16;;;;;;;0.00;0.00;;;26.30;49.70;;;;;;5011030;28;20193;-48
2024/03/01 03:31:47;;;;;;;0.00;0.00;;;26.30;49.70;;;;;;5011758;28;20200;-41
2024/03/01 03:34:18;;;;;;;0.00;0.00;;;26.30;49.70;;;;;;5010999;28;20224;-44
2024/03/01 03:36:48;;;;;;;0.00;0.00;;;26.30;49.60;;;;;;5011988;28;20208;-42
2024/03/01 03:39:21;;;;;;;0.00;0.00;;;26.40;49.70;;;;;;5004836;28;20205;-42
2024/03/01 03:41:51;;;;;;;0.00;0.00;;;26.30;49.60;;;;;;5006984;28;20205;-40
2024/03/01 03:44:22;;;;;;;0.00;0.00;;;26.30;49.60;;;;;;5001810;28;20612;-48
2024/03/01 03:46:53;;;;;;;0.00;0.00;;;26.40;49.70;;;;;;4995036;28;20208;-43
2024/03/01 03:49:23;;;;;;;0.00;0.00;;;26.40;49.60;;;;;;5007395;28;20208;-46
2024/03/01 03:51:54;;;;;;;0.00;0.00;;;26.40;49.90;;;;;;5012191;28;20192;-43
2024/03/01 03:54:27;;;;;;;0.00;0.00;;;26.40;49.50;;;;;;5027360;28;20595;-42
2024/03/01 03:56:57;;;;;;;0.00;0.00;;;26.50;49.50;;;;;;5018137;28;20665;-44
2024/03/01 03:59:28;;;;;;;0.00;0.00;;;26.50;49.50;;;;;;5007795;28;20197;-51
2024/03/01 04:01:59;;;;;;;0.00;0.00;;;26.50;49.40;;;;;;5007489;28;20215;-45
2024/03/01 04:04:29;;;;;;;0.00;0.00;;;26.50;49.50;;;;;;5005106;28;20197;-41
2024/03/01 04:07:00;;;;;;;0.00;0.00;;;26.60;49.60;;;;;;5014804;28;20279;-43
2024/03/01 04:09:32;;;;;;;0.00;0.00;;;26.50;49.50;;;;;;5007043;28;20205;-45
2024/03/01 04:12:05;;;;;;;0.00;0.00;;;26.50;49.50;;;;;;5007372;28;20258;-42
2024/03/01 04:14:36;;;;;;;0.00;0.00;;;26.60;49.50;;;;;;5008009;28;20771;-42
2024/03/01 04:17:07;;;;;;;0.00;0.00;;;26.60;49.50;;;;;;5007430;28;20215;-44
2024/03/01 04:19:41;;;;;;;0.00;0.00;;;26.60;49.60;;;;;;5013153;28;20606;-42
2024/03/01 04:22:13;;;;;;;0.00;0.00;;;26.60;49.50;;;;;;5007453;28;20223;-41
2024/03/01 04:24:45;;;;;;;0.00;0.00;;;26.60;49.50;;;;;;5007894;28;20668;-42
2024/03/01 04:27:16;;;;;;;0.00;0.00;;;26.60;49.50;;;;;;5007433;28;20204;-41
2024/03/01 04:29:46;;;;;;;0.00;0.00;;;26.60;49.50;;;;;;5006128;28;20228;-44
2024/03/01 04:32:18;;;;;;;0.00;0.00;;;26.60;49.50;;;;;;5017078;28;20664;-42
2024/03/01 04:34:48;;;;;;;0.00;0.00;;;26.60;49.40;;;;;;4988385;28;20228;-45
2024/03/01 04:37:19;;;;;;;0.00;0.00;;;26.60;49.40;;;;;;5000227;28;20205;-42
2024/03/01 04:39:52;;;;;;;0.00;0.00;;;26.60;49.40;;;;;;5007419;28;20225;-48
2024/03/01 04:42:22;;;;;;;0.00;0.00;;;26.70;49.50;;;;;;5006984;28;20197;-40
2024/03/01 04:44:53;;;;;;;0.00;0.00;;;26.70;49.50;;;;;;5018214;28;20200;-40
2024/03/01 04:47:23;;;;;;;0.00;0.00;;;26.70;49.40;;;;;;5027190;28;20352;-40
2024/03/01 04:49:54;;;;;;;0.00;0.00;;;26.70;49.40;;;;;;5026534;28;20570;-45
2024/03/01 04:52:26;;;;;;;0.00;0.00;;;26.70;49.50;;;;;;5027461;28;20200;-40
2024/03/01 04:54:58;;;;;;;0.00;0.00;;;26.80;49.50;;;;;;5006460;28;20232;-47
2024/03/01 04:57:29;;;;;;;0.00;0.00;;;26.80;49.50;;;;;;5016967;28;20204;-47
2024/03/01 05:00:00;;;;;;;0.00;0.00;;;26.80;49.50;;;;;;5030206;28;20220;-44
2024/03/01 05:02:31;;;;;;;0.00;0.00;;;26.90;49.50;;;;;;5029752;28;20211;-44
2024/03/01 05:05:02;;;;;;;0.00;0.00;;;26.90;49.50;;;;;;5031385;28;20691;-42
2024/03/01 05:07:33;;;;;;;0.00;0.00;;;26.90;49.50;;;;;;5016140;28;20200;-41
2024/03/01 05:10:08;;;;;;;0.00;0.00;;;26.90;49.40;;;;;;5016874;28;20219;-46
2024/03/01 05:12:39;;;;;;;0.00;0.00;;;27.00;49.50;;;;;;4992967;28;20225;-44
2024/03/01 05:15:12;;;;;;;0.00;0.00;;;27.00;49.50;;;;;;4991157;28;20237;-42
2024/03/01 05:17:45;;;;;;;0.00;0.00;;;27.00;49.50;;;;;;4999060;28;20203;-41
2024/03/01 05:20:16;;;;;;;0.00;0.00;;;27.00;49.50;;;;;;5011061;28;20216;-42
2024/03/01 05:22:47;;;;;;;0.00;0.00;;;27.10;49.50;;;;;;5010350;28;20307;-40
2024/03/01 05:25:19;;;;;;;0.00;0.00;;;27.10;49.50;;;;;;5021671;28;20563;-40
2024/03/01 05:27:51;;;;;;;0.00;0.00;;;27.10;49.40;;;;;;5003103;28;20719;-40
2024/03/01 05:30:23;;;;;;;0.00;0.00;;;27.10;49.40;;;;;;5009684;28;20221;-45
2024/03/01 05:32:55;;;;;;;0.00;0.00;;;27.20;49.50;;;;;;5008748;28;20375;-44
2024/03/01 05:35:26;;;;;;;0.00;0.00;;;27.20;49.50;;;;;;5009776;28;20231;-43
2024/03/01 05:37:58;;;;;;;0.00;0.00;;;27.20;49.40;;;;;;5010614;28;20216;-47
2024/03/01 05:40:30;;;;;;;0.00;0.00;;;27.20;49.40;;;;;;5029151;28;20317;-40
2024/03/01 05:43:02;;;;;;;0.00;0.00;;;27.30;49.40;;;;;;5030120;28;20200;-40
2024/03/01 05:45:35;;;;;;;0.00;0.00;;;27.30;49.40;;;;;;5028699;28;20654;-41
2024/03/01 05:48:10;;;;;;;0.00;0.00;;;27.30;49.40;;;;;;5029689;28;20290;-43
2024/03/01 05:50:41;;;;;;;0.00;0.00;;;27.30;49.30;;;;;;5029583;28;20219;-42
2024/03/01 05:53:15;;;;;;;0.00;0.00;;;27.40;49.30;;;;;;5029058;28;20208;-45
2024/03/01 05:55:47;;;;;;;0.00;0.00;;;27.40;49.30;;;;;;5029882;28;20327;-45
2024/03/01 05:58:19;;;;;;;0.00;0.00;;;27.40;49.30;;;;;;5029731;28;20200;-45
2024/03/01 06:00:51;;;;;;;0.00;0.00;;;27.40;49.40;;;;;;5030246;28;20262;-47
2024/03/01 06:03:22;;;;;;;0.00;0.00;;;27.40;49.30;;;;;;5003888;28;20202;-48
2024/03/01 06:05:53;;;;;;;0.00;0.00;;;27.40;49.30;;;;;;5028908;28;20672;-49
2024/03/01 06:08:23;;;;;;;0.00;0.00;;;27.40;49.30;;;;;;5009733;28;20212;-45
2024/03/01 06:10:56;;;;;;;0.00;0.00;;;27.40;49.30;;;;;;5009749;28;20223;-44
2024/03/01 06:13:27;;;;;;;0.00;0.00;;;27.40;49.20;;;;;;5009159;28;20197;-46
2024/03/01 06:15:57;;;;;;;0.00;0.00;;;27.40;49.20;;;;;;5008853;28;20224;-48
2024/03/01 06:18:28;;;;;;;0.00;0.00;;;27.40;49.20;;;;;;5018424;28;20656;-48
2024/03/01 06:20:59;;;;;;;0.00;0.00;;;27.40;49.20;;;;;;5028856;28;20599;-47
2024/03/01 06:23:30;;;;;;;0.00;0.00;;;27.40;49.10;;;;;;5029499;28;20658;-47
2024/03/01 06:26:03;;;;;;;0.00;0.00;;;27.40;49.20;;;;;;5029080;28;20204;-50
2024/03/01 06:28:33;;;;;;;0.00;0.00;;;27.40;49.40;;;;;;5009015;28;20196;-47
2024/03/01 06:31:10;;;;;;;0.00;0.00;;;27.40;49.20;;;;;;5002708;28;20217;-46
2024/03/01 06:33:41;;;;;;;0.00;0.00;;;27.40;49.20;;;;;;5015684;28;20673;-47
2024/03/01 06:36:12;;;;;;;0.00;0.00;;;27.30;49.20;;;;;;5008939;28;21067;-46
2024/03/01 06:38:43;;;;;;;0.00;0.00;;;27.30;49.20;;;;;;5009272;28;20662;-47
2024/03/01 06:41:15;;;;;;;0.00;0.00;;;27.40;49.30;;;;;;5009048;28;20221;-49
2024/03/01 06:43:46;;;;;;;0.00;0.00;;;27.40;49.30;;;;;;5008793;28;20201;-45
2024/03/01 06:46:17;;;;;;;0.00;0.00;;;27.30;49.10;;;;;;5024960;28;20200;-48
2024/03/01 06:48:47;;;;;;;0.00;0.00;;;27.30;49.10;;;;;;5018575;28;20551;-48
2024/03/01 06:51:18;;;;;;;0.00;0.00;;;27.30;49.00;;;;;;5012697;28;20220;-47
2024/03/01 06:53:49;;;;;;;0.00;0.00;;;27.30;49.00;;;;;;5012846;28;20201;-48
2024/03/01 06:56:22;;;;;;;0.00;0.00;;;27.30;49.00;;;;;;5011835;28;20225;-49
2024/03/01 06:58:53;;;;;;;0.00;0.00;;;27.30;49.00;;;;;;5012303;28;20777;-48
2024/03/01 07:01:24;;;;;;;0.00;0.00;;;27.30;48.90;;;;;;5011773;28;20690;-48
2024/03/01 07:03:55;;;;;;;0.00;0.00;;;27.30;48.90;;;;;;5011774;28;20209;-49
2024/03/01 07:06:25;;;;;;;0.00;0.00;;;27.30;49.00;;;;;;5012880;28;20608;-48
2024/03/01 07:08:56;;;;;;;0.00;0.00;;;27.20;49.00;;;;;;5012294;28;20588;-49
2024/03/01 07:11:29;;;;;;;0.00;0.00;;;27.20;48.90;;;;;;5011773;28;20217;-51
2024/03/01 07:13:59;;;;;;;0.00;0.00;;;27.10;48.80;;;;;;5012124;28;20288;-45
2024/03/01 07:16:30;;;;;;;0.00;0.00;;;27.20;48.90;;;;;;5008885;28;20703;-47
2024/03/01 07:19:01;;;;;;;0.00;0.00;;;27.10;48.90;;;;;;5012110;28;20672;-47
2024/03/01 07:21:32;;;;;;;0.00;0.00;;;27.10;48.90;;;;;;5010989;28;20216;-47
2024/03/01 07:24:02;;;;;;;0.00;0.00;;;27.10;48.90;;;;;;4997365;28;20225;-47
2024/03/01 07:26:35;;;;;;;0.00;0.00;;;27.10;49.00;;;;;;4991927;28;20284;-50
2024/03/01 07:29:06;;;;;;;0.00;0.00;;;27.10;49.00;;;;;;4991958;28;20215;-49
2024/03/01 07:31:36;;;;;;;0.00;0.00;;;27.10;49.00;;;;;;4991019;28;20721;-46
2024/03/01 07:34:07;;;;;;;0.00;0.00;;;27.10;49.00;;;;;;5008621;28;20193;-49
2024/03/01 07:36:39;;;;;;;0.00;0.00;;;27.10;49.00;;;;;;5011319;28;20239;-47
2024/03/01 07:39:10;;;;;;;0.00;0.00;;;27.10;49.00;;;;;;5008734;28;20221;-49
2024/03/01 07:41:43;;;;;;;0.00;0.00;;;27.10;49.00;;;;;;5006967;28;20324;-48
2024/03/01 07:44:13;;;;;;;0.00;0.00;;;27.00;48.90;;;;;;5011694;28;20611;-48
2024/03/01 07:46:44;;;;;;;0.00;0.00;;;27.00;48.90;;;;;;5011730;28;20219;-47
2024/03/01 07:49:17;;;;;;;0.00;0.00;;;27.00;48.90;;;;;;5011566;28;20231;-50
2024/03/01 07:51:52;;;;;;;0.00;0.00;;;27.00;48.90;;;;;;5012455;28;20196;-48
2024/03/01 07:54:22;;;;;;;0.00;0.00;;;27.00;48.90;;;;;;5011232;28;20234;-47
2024/03/01 07:56:55;;;;;;;0.00;0.00;;;27.00;48.90;;;;;;4994181;28;20229;-43
2024/03/01 07:59:25;;;;;;;0.00;0.00;;;26.90;48.90;;;;;;4991668;28;20248;-46
2024/03/01 08:01:56;;;;;;;0.00;0.00;;;26.90;48.90;;;;;;5008824;28;20665;-48
2024/03/01 08:04:28;;;;;;;0.00;0.00;;;26.90;48.90;;;;;;5011453;28;20208;-46
2024/03/01 08:06:58;;;;;;;0.00;0.00;;;26.90;48.90;;;;;;5011277;28;20192;-50
2024/03/01 08:09:36;;;;;;;0.00;0.00;;;26.90;48.90;;;;;;5011067;28;20212;-47
2024/03/01 08:12:13;;;;;;;0.00;0.00;;;26.80;48.90;;;;;;5010702;28;20205;-42
2024/03/01 08:14:43;;;;;;;0.00;0.00;;;26.80;48.80;;;;;;5010987;28;20196;-45
2024/03/01 08:17:15;;;;;;;0.00;0.00;;;26.80;48.90;;;;;;5002919;28;20269;-41
2024/03/01 08:19:47;;;;;;;0.00;0.00;;;26.80;48.90;;;;;;5004749;28;20718;-42
2024/03/01 08:22:19;;;;;;;0.00;0.00;;;26.80;49.60;;;;;;5006214;28;20708;-41
2024/03/01 08:24:50;;;;;;;0.00;0.00;;;26.80;49.00;;;;;;5006181;28;20247;-43
2024/03/01 08:27:27;;;;;;;0.00;0.00;;;26.70;49.00;;;;;;5006910;28;20209;-40
2024/03/01 08:30:01;;;;;;;0.00;0.00;;;26.70;49.00;;;;;;5007003;28;20215;-42
2024/03/01 08:32:33;;;;;;;0.00;0.00;;;26.70;49.00;;;;;;5027078;28;20287;-40
2024/03/01 08:35:05;;;;;;;0.00;0.00;;;26.70;49.00;;;;;;5021524;28;20193;-39
2024/03/01 08:37:36;;;;;;;0.00;0.00;;;26.70;49.10;;;;;;5011445;28;20260;-47
2024/03/01 08:40:12;;;;;;;0.00;0.00;;;26.70;49.10;;;;;;4993272;28;20221;-42
2024/03/01 08:42:44;;;;;;;0.00;0.00;;;26.60;49.00;;;;;;5003535;28;20291;-45
2024/03/01 08:45:32;;;;;;;0.00;0.00;;;26.60;49.00;;;;;;5010808;28;20595;-47
2024/03/01 08:48:10;;;;;;;0.00;0.00;;;26.60;49.00;;;;;;5009807;28;20196;-42
2024/03/01 08:50:47;;;;;;;0.00;0.00;;;26.60;49.00;;;;;;5011095;28;20220;-44
2024/03/01 08:53:49;;;;;;;0.00;0.00;;;26.50;49.00;;;;;;5011630;28;20219;-37
2024/03/01 08:56:20;;;;;;;0.00;0.00;;;26.50;49.00;;;;;;5014704;28;20316;-43
2024/03/01 08:58:54;;;;;;;0.00;0.00;;;26.50;49.00;;;;;;5030434;28;20578;-45
2024/03/01 09:01:47;;;;;;;0.00;0.00;;;26.50;49.00;;;;;;5030343;28;20700;-46
2024/03/01 09:04:28;;;;;;;0.00;0.00;;;26.50;49.10;;;;;;5030919;28;20203;-44
2024/03/01 09:07:16;;;;;;;0.00;0.00;;;26.50;49.10;;;;;;5030432;28;20675;-40
2024/03/01 09:09:47;;;;;;;0.00;0.00;;;26.40;49.10;;;;;;5030395;28;20235;-40
2024/03/01 09:12:25;;;;;;;0.00;0.00;;;26.40;49.10;;;;;;5014316;28;20216;-48
2024/03/01 09:15:01;;;;;;;0.00;0.00;;;26.40;49.10;;;;;;5011472;28;20684;-42
2024/03/01 09:17:33;;;;;;;0.00;0.00;;;26.40;49.10;;;;;;5011003;28;20235;-45
2024/03/01 09:20:08;;;;;;;0.00;0.00;;;26.40;49.10;;;;;;5010769;28;20224;-47
2024/03/01 09:22:39;;;;;;;0.00;0.00;;;26.40;49.10;;;;;;5003612;28;20232;-42
2024/03/01 09:25:15;;;;;;;0.00;0.00;;;26.40;49.10;;;;;;5001866;28;20603;-43
2024/03/01 09:27:46;;;;;;;0.00;0.00;;;26.30;49.10;;;;;;5010563;28;20215;-42
2024/03/01 09:30:21;;;;;;;0.00;0.00;;;26.30;49.10;;;;;;5010013;28;20216;-40
2024/03/01 09:32:52;;;;;;;0.00;0.00;;;26.30;49.10;;;;;;5010808;28;20211;-45
2024/03/01 09:35:23;;;;;;;0.00;0.00;;;26.30;49.10;;;;;;5025961;28;20200;-40
2024/03/01 09:37:54;;;;;;;0.00;0.00;;;26.20;49.00;;;;;;5029594;28;20203;-43
2024/03/01 09:40:57;;;;;;;0.00;0.00;;;26.30;49.10;;;;;;5013338;28;20233;-40
2024/03/01 09:43:35;;;;;;;0.00;0.00;;;26.20;49.10;;;;;;4991123;28;20612;-41
2024/03/01 09:46:12;;;;;;;0.00;0.00;;;26.20;49.00;;;;;;4990431;28;20208;-37
2024/03/01 09:49:02;;;;;;;0.00;0.00;;;26.20;49.00;;;;;;5008918;28;20204;-43
2024/03/01 09:51:40;;;;;;;0.10;0.10;;;26.20;49.10;;;;;;5008519;28;20303;-41
2024/03/01 09:54:23;;;;;;;0.00;0.00;;;26.20;49.10;;;;;;5009291;28;20205;-40
2024/03/01 09:57:08;;;;;;;0.00;0.00;;;26.20;49.20;;;;;;5009925;28;20228;-42
2024/03/01 09:59:45;;;;;;;0.00;0.00;;;26.20;49.10;;;;;;5004331;28;20216;-40
2024/03/01 10:02:33;;;;;;;0.03;0.03;;;26.10;49.10;;;;;;5026119;28;20637;-38
2024/03/01 10:05:20;;;;;;;0.00;0.00;;;26.10;49.10;;;;;;5030019;28;20626;-40
2024/03/01 10:08:00;;;;;;;0.00;0.00;;;26.10;49.10;;;;;;5006845;28;20287;-38
2024/03/01 10:10:45;;;;;;;0.00;0.00;;;26.10;49.20;;;;;;4990692;28;20780;-43
2024/03/01 10:13:25;;;;;;;0.00;0.00;;;26.10;49.20;;;;;;5018356;28;20204;-40
2024/03/01 10:16:10;;;;;;;0.00;0.00;;;26.00;49.10;;;;;;5029700;28;20668;-44
2024/03/01 10:19:00;;;;;;;0.00;0.00;;;26.00;49.10;;;;;;5010522;28;20200;-39
2024/03/01 10:21:36;;;;;;;0.00;0.00;;;26.00;49.10;;;;;;5010102;28;20228;-40
2024/03/01 10:24:36;;;;;;;0.00;0.00;;;26.00;49.10;;;;;;5009289;28;20211;-38
2024/03/01 10:27:14;;;;;;;0.00;0.00;;;25.90;49.00;;;;;;5009271;28;20211;-38
2024/03/01 10:30:01;;;;;;;0.00;0.00;;;25.90;49.00;;;;;;5009524;28;20271;-38
2024/03/01 10:32:45;;;;;;;0.00;0.00;;;25.90;49.00;;;;;;5009045;28;20205;-38
2024/03/01 10:35:22;;;;;;;0.00;0.00;;;25.90;49.00;;;;;;5010143;28;20200;-38
2024/03/01 10:38:10;;;;;;;0.00;0.00;;;25.90;49.00;;;;;;5009117;28;20726;-38
2024/03/01 10:40:47;;;;;;;0.00;0.00;;;25.90;49.00;;;;;;5001039;28;20627;-38
2024/03/01 10:43:24;;;;;;;0.00;0.00;;;25.90;49.00;;;;;;4999845;28;20284;-39
2024/03/01 10:46:02;;;;;;;0.00;0.00;;;25.90;49.00;;;;;;4998840;28;20288;-41
2024/03/01 10:48:40;;;;;;;0.00;0.00;;;25.80;49.00;;;;;;4998172;28;20594;-39
2024/03/01 10:51:15;;;;;;;0.00;0.00;;;25.80;48.90;;;;;;4997933;28;20283;-39
2024/03/01 10:53:51;;;;;;;0.00;0.00;;;25.80;48.90;;;;;;5000541;28;20196;-38
2024/03/01 10:56:23;;;;;;;0.00;0.00;;;25.80;48.90;;;;;;4997092;28;20217;-38
2024/03/01 10:59:05;;;;;;;0.00;0.00;;;25.80;48.90;;;;;;4998472;28;20200;-41
2024/03/01 11:01:40;;;;;;;0.00;0.00;;;25.80;48.90;;;;;;4999165;28;20248;-39
2024/03/01 11:04:20;;;;;;;0.00;0.00;;;25.70;48.90;;;;;;4998263;28;20280;-38
2024/03/01 11:06:58;;;;;;;0.00;0.00;;;25.70;48.80;;;;;;5003406;28;20197;-41
2024/03/01 11:09:38;;;;;;;0.00;0.00;;;25.70;48.80;;;;;;5002626;28;20205;-42
2024/03/01 11:12:17;;;;;;;0.00;0.00;;;25.70;48.80;;;;;;5009250;28;20201;-45
2024/03/01 11:14:53;;;;;;;0.00;0.00;;;25.70;48.90;;;;;;5009530;28;20665;-40
2024/03/01 11:17:26;;;;;;;0.00;0.00;;;25.60;48.80;;;;;;5007603;28;20228;-42
2024/03/01 11:20:00;;;;;;;0.05;0.05;;;25.60;48.80;;;;;;5021784;28;20231;-40
2024/03/01 11:22:35;;;;;;;0.00;0.00;;;25.60;48.80;;;;;;5005622;28;20211;-40
2024/03/01 11:25:14;;;;;;;0.00;0.00;;;25.60;48.80;;;;;;5003176;28;20192;-40
2024/03/01 11:27:50;;;;;;;0.00;0.00;;;25.60;48.90;;;;;;5000709;28;20276;-38
2024/03/01 11:30:24;;;;;;;0.00;0.00;;;25.60;48.90;;;;;;5001103;28;20239;-39
2024/03/01 11:33:01;;;;;;;0.00;0.00;;;25.50;48.80;;;;;;5000533;28;20545;-39
2024/03/01 11:35:39;;;;;;;0.00;0.00;;;25.50;48.80;;;;;;5001817;28;20197;-38
2024/03/01 11:38:28;;;;;;;0.00;0.00;;;25.50;48.80;;;;;;5001313;28;20229;-39
2024/03/01 11:41:16;;;;;;;0.00;0.00;;;25.50;48.80;;;;;;5002243;28;20209;-40
2024/03/01 11:44:02;;;;;;;0.03;0.03;;;25.50;48.80;;;;;;5000432;28;20200;-42
2024/03/01 11:46:55;;;;;;;0.10;0.10;;;25.40;48.70;;;;;;5001105;28;20204;-38
2024/03/01 11:49:38;;;;;;;0.00;0.00;;;25.40;48.80;;;;;;5002349;28;20197;-40
2024/03/01 11:52:25;;;;;;;0.00;0.00;;;25.40;48.80;;;;;;5000763;28;20198;-38
2024/03/01 11:55:08;;;;;;;0.00;0.00;;;25.40;48.80;;;;;;5002191;28;20189;-41
2024/03/01 11:57:45;;;;;;;0.00;0.00;;;25.30;48.70;;;;;;5002041;28;20271;-41
2024/03/01 12:00:44;;;;;;;0.00;0.00;;;25.30;48.70;;;;;;5001717;28;20280;-41
2024/03/01 12:03:51;;;;;;;0.00;0.00;;;25.30;48.70;;;;;;4991389;28;20213;-39
2024/03/01 12:06:35;;;;;;;0.00;0.00;;;25.30;48.70;;;;;;4957518;28;20251;-41
2024/03/01 12:09:16;;;;;;;0.03;0.03;;;25.30;48.70;;;;;;4992113;28;20610;-38
2024/03/01 12:11:58;;;;;;;0.00;0.00;;;25.30;48.80;;;;;;4993966;28;20194;-41
2024/03/01 12:14:34;;;;;;;0.00;0.00;;;25.20;48.80;;;;;;4991546;28;20200;-38
2024/03/01 12:17:09;;;;;;;0.00;0.00;;;25.20;48.80;;;;;;4991562;28;20240;-40
2024/03/01 12:19:50;;;;;;;0.00;0.00;;;25.20;48.80;;;;;;4991434;28;20223;-39
2024/03/01 12:22:45;;;;;;;0.00;0.00;;;25.20;48.80;;;;;;4992135;28;20283;-38
2024/03/01 12:25:17;;;;;;;0.00;0.00;;;25.20;48.80;;;;;;5004424;28;20231;-40
2024/03/01 12:28:13;;;;;;;0.00;0.00;;;25.10;48.70;;;;;;5011691;28;20201;-40
2024/03/01 12:30:54;;;;;;;0.00;0.00;;;25.10;48.80;;;;;;5011603;28;20224;-41
2024/03/01 12:33:54;;;;;;;0.00;0.00;;;25.10;48.80;;;;;;5012099;28;20549;-40
2024/03/01 12:36:36;;;;;;;0.00;0.00;;;25.10;48.80;;;;;;5011151;28;20197;-41
2024/03/01 12:39:10;;;;;;;0.00;0.00;;;25.10;48.70;;;;;;5011289;28;20881;-40
2024/03/01 12:42:05;;;;;;;0.00;0.00;;;25.10;48.80;;;;;;5011213;28;20645;-40
2024/03/01 12:44:48;;;;;;;0.00;0.00;;;25.10;48.90;;;;;;5011068;28;20201;-38
2024/03/01 12:47:33;;;;;;;0.10;0.10;;;25.00;48.80;;;;;;5011102;28;20197;-39
2024/03/01 12:50:20;;;;;;;0.10;0.10;;;25.00;48.80;;;;;;5010905;28;20731;-39
2024/03/01 12:53:10;;;;;;;0.08;0.08;;;25.00;48.80;;;;;;5011043;28;20279;-39
2024/03/01 12:55:47;;;;;;;0.10;0.10;;;25.00;48.80;;;;;;5011536;28;20205;-42
2024/03/01 12:58:29;;;;;;;0.00;0.00;;;25.00;49.00;;;;;;5011557;28;20236;-40
2024/03/01 13:01:11;;;;;;;0.00;0.00;;;25.00;48.80;;;;;;5011039;28;20221;-38
2024/03/01 13:03:52;;;;;;;0.00;0.00;;;24.90;48.80;;;;;;5011100;28;20723;-39
2024/03/01 13:06:25;;;;;;;0.00;0.00;;;24.90;48.80;;;;;;5011089;28;20283;-38
2024/03/01 13:09:05;;;;;;;0.00;0.00;;;24.90;48.80;;;;;;5010652;28;20193;-39
2024/03/01 13:11:38;;;;;;;0.00;0.00;;;24.90;48.80;;;;;;5011039;28;20217;-39
2024/03/01 13:14:16;;;;;;;0.00;0.00;;;24.90;48.80;;;;;;5011384;28;20197;-39
2024/03/01 13:16:49;;;;;;;0.00;0.00;;;24.90;48.80;;;;;;5011314;28;20941;-40
2024/03/01 13:19:24;;;;;;;0.00;0.00;;;24.90;49.50;;;;;;5012039;28;20208;-40
2024/03/01 13:22:04;;;;;;;0.00;0.00;;;24.80;48.80;;;;;;5014787;28;20294;-41
2024/03/01 13:24:43;;;;;;;0.00;0.00;;;24.80;48.80;;;;;;5011124;28;20235;-39